Orbital elements of SL-8 DEB
| Launched | 15 June 1993 |
| Flight ended | – |
| Launch site | Plesetsk Missile and Space Complex, Russia |
| Owner | Commonwealth of Independent States (former USSR) |
| NORAD ID | 23007 |
| Date fetched |
Epoch osculation |
Inc. [°] |
Ecc. | RA asc node [hr] |
Arg Peri. [°] |
Mean anom [°] |
Mean motion [rev/day] |
Abs. mag |
| Date fetched |
Epoch osculation |
Inc. [°] |
Ecc. | RA asc node [hr] |
Arg Peri. [°] |
Mean anom [°] |
Mean motion [rev/day] |
Abs. mag |
| 2026 May 03 17:57 | 2026 Apr 30 12:24:35 | 74.0250 | 0.00098 | 13.5835 | 171.0942 | 200.8261 | 14.48447 | – |
| 2026 May 02 17:57 | 2026 Apr 30 12:24:35 | 74.0250 | 0.00098 | 13.5835 | 171.0942 | 200.8261 | 14.48447 | – |
| 2026 May 01 17:56 | 2026 Apr 30 12:24:35 | 74.0250 | 0.00098 | 13.5835 | 171.0942 | 200.8261 | 14.48447 | – |
| 2026 Apr 30 17:56 | 2026 Apr 30 12:24:35 | 74.0250 | 0.00098 | 13.5835 | 171.0942 | 200.8261 | 14.48447 | – |
| 2026 Apr 29 17:57 | 2026 Apr 24 07:17:16 | 74.0250 | 0.00101 | 14.3598 | 183.6485 | 200.8261 | 14.48447 | – |
| 2026 Apr 28 17:56 | 2026 Apr 24 07:17:16 | 74.0250 | 0.00101 | 14.3598 | 183.6485 | 200.8261 | 14.48447 | – |
| 2026 Apr 27 17:58 | 2026 Apr 24 07:17:16 | 74.0250 | 0.00101 | 14.3598 | 183.6485 | 200.8261 | 14.48447 | – |
| 2026 Apr 26 17:58 | 2026 Apr 24 07:17:16 | 74.0250 | 0.00101 | 14.3598 | 183.6485 | 200.8261 | 14.48447 | – |
| 2026 Apr 25 17:58 | 2026 Apr 24 07:17:16 | 74.0250 | 0.00101 | 14.3598 | 183.6485 | 200.8261 | 14.48447 | – |
| 2026 Apr 24 17:59 | 2026 Apr 24 07:17:16 | 74.0250 | 0.00101 | 14.3598 | 183.6485 | 200.8261 | 14.48447 | – |
| 2026 Apr 23 17:57 | 2026 Apr 19 07:57:40 | 74.0247 | 0.00103 | 14.9811 | 193.5177 | 200.8261 | 14.48447 | – |
| 2026 Apr 22 17:57 | 2026 Apr 19 07:57:40 | 74.0247 | 0.00103 | 14.9811 | 193.5177 | 200.8261 | 14.48447 | – |
| 2026 Apr 21 17:57 | 2026 Apr 19 07:57:40 | 74.0247 | 0.00103 | 14.9811 | 193.5177 | 200.8261 | 14.48447 | – |
| 2026 Apr 20 17:57 | 2026 Apr 19 07:57:40 | 74.0247 | 0.00103 | 14.9811 | 193.5177 | 200.8261 | 14.48447 | – |
| 2026 Apr 19 17:58 | 2026 Apr 19 07:57:40 | 74.0247 | 0.00103 | 14.9811 | 193.5177 | 200.8261 | 14.48447 | – |
| 2026 Apr 18 17:56 | 2026 Apr 13 07:41:29 | 74.0242 | 0.00105 | 15.7322 | 205.1919 | 200.8261 | 14.48447 | – |
| 2026 Apr 16 17:57 | 2026 Apr 13 07:41:29 | 74.0242 | 0.00105 | 15.7322 | 205.1919 | 200.8261 | 14.48447 | – |
| 2026 Apr 14 17:57 | 2026 Apr 13 07:41:29 | 74.0242 | 0.00105 | 15.7322 | 205.1919 | 200.8261 | 14.48447 | – |
| 2026 Apr 13 17:57 | 2026 Apr 13 07:41:29 | 74.0242 | 0.00105 | 15.7322 | 205.1919 | 200.8261 | 14.48447 | – |
| 2026 Apr 12 17:57 | 2026 Apr 08 10:03:07 | 74.0245 | 0.00106 | 16.3446 | 214.7566 | 200.8261 | 14.48447 | – |
| 2026 Apr 11 17:57 | 2026 Apr 08 10:03:07 | 74.0245 | 0.00106 | 16.3446 | 214.7566 | 200.8261 | 14.48447 | – |
| 2026 Apr 10 17:58 | 2026 Apr 08 10:03:07 | 74.0245 | 0.00106 | 16.3446 | 214.7566 | 200.8261 | 14.48447 | – |
| 2026 Apr 09 18:01 | 2026 Apr 08 10:03:07 | 74.0245 | 0.00106 | 16.3446 | 214.7566 | 200.8261 | 14.48447 | – |
| 2026 Apr 08 17:57 | 2026 Apr 08 10:03:07 | 74.0245 | 0.00106 | 16.3446 | 214.7566 | 200.8261 | 14.48447 | – |
| 2026 Apr 07 17:57 | 2026 Apr 01 10:38:07 | 74.0227 | 0.00108 | 17.2163 | 227.9894 | 200.8261 | 14.48447 | – |
| 2026 Apr 06 17:57 | 2026 Apr 01 10:38:07 | 74.0227 | 0.00108 | 17.2163 | 227.9894 | 200.8261 | 14.48447 | – |